sensor_id;sensor_type;location;lat;lon;timestamp;P1;durP1;ratioP1;P2;durP2;ratioP2
11924;SDS011;6022;48.768;18.608;2023-04-07T00:00:23;0.93;;;0.90;;
11924;SDS011;6022;48.768;18.608;2023-04-07T00:02:50;2.43;;;2.27;;
11924;SDS011;6022;48.768;18.608;2023-04-07T00:05:18;2.43;;;2.27;;
11924;SDS011;6022;48.768;18.608;2023-04-07T00:07:45;2.17;;;1.70;;
11924;SDS011;6022;48.768;18.608;2023-04-07T00:10:22;2.70;;;1.33;;
11924;SDS011;6022;48.768;18.608;2023-04-07T00:12:50;4.00;;;1.93;;
11924;SDS011;6022;48.768;18.608;2023-04-07T00:15:18;3.40;;;2.53;;
11924;SDS011;6022;48.768;18.608;2023-04-07T00:17:45;0.80;;;0.80;;
11924;SDS011;6022;48.768;18.608;2023-04-07T00:20:13;4.73;;;2.87;;
11924;SDS011;6022;48.768;18.608;2023-04-07T00:22:40;4.77;;;1.83;;
11924;SDS011;6022;48.768;18.608;2023-04-07T00:25:08;2.13;;;1.50;;
11924;SDS011;6022;48.768;18.608;2023-04-07T00:27:36;3.20;;;1.60;;
11924;SDS011;6022;48.768;18.608;2023-04-07T00:30:04;3.70;;;1.67;;
11924;SDS011;6022;48.768;18.608;2023-04-07T00:32:32;3.13;;;2.60;;
11924;SDS011;6022;48.768;18.608;2023-04-07T00:35:01;1.73;;;1.13;;
11924;SDS011;6022;48.768;18.608;2023-04-07T00:37:29;2.30;;;1.13;;
11924;SDS011;6022;48.768;18.608;2023-04-07T00:39:57;2.23;;;1.83;;
11924;SDS011;6022;48.768;18.608;2023-04-07T00:42:28;1.47;;;1.37;;
11924;SDS011;6022;48.768;18.608;2023-04-07T00:45:29;0.87;;;0.80;;
11924;SDS011;6022;48.768;18.608;2023-04-07T00:47:57;5.47;;;1.33;;
11924;SDS011;6022;48.768;18.608;2023-04-07T00:50:25;3.13;;;2.17;;
11924;SDS011;6022;48.768;18.608;2023-04-07T00:52:53;1.93;;;1.57;;
11924;SDS011;6022;48.768;18.608;2023-04-07T00:55:22;2.47;;;2.23;;
11924;SDS011;6022;48.768;18.608;2023-04-07T00:57:49;3.83;;;2.03;;
11924;SDS011;6022;48.768;18.608;2023-04-07T01:00:17;2.37;;;2.27;;
11924;SDS011;6022;48.768;18.608;2023-04-07T01:02:56;2.30;;;1.93;;
11924;SDS011;6022;48.768;18.608;2023-04-07T01:05:41;1.50;;;1.40;;
11924;SDS011;6022;48.768;18.608;2023-04-07T01:09:04;3.67;;;2.53;;
11924;SDS011;6022;48.768;18.608;2023-04-07T01:11:30;1.47;;;1.37;;
11924;SDS011;6022;48.768;18.608;2023-04-07T01:14:16;2.33;;;1.93;;
11924;SDS011;6022;48.768;18.608;2023-04-07T01:16:47;2.33;;;1.67;;
11924;SDS011;6022;48.768;18.608;2023-04-07T01:22:13;0.70;;;0.70;;
11924;SDS011;6022;48.768;18.608;2023-04-07T01:25:11;0.83;;;0.80;;
11924;SDS011;6022;48.768;18.608;2023-04-07T01:30:50;2.07;;;1.97;;
11924;SDS011;6022;48.768;18.608;2023-04-07T01:33:23;1.67;;;1.57;;
11924;SDS011;6022;48.768;18.608;2023-04-07T01:36:02;1.50;;;1.40;;
11924;SDS011;6022;48.768;18.608;2023-04-07T01:38:56;2.23;;;1.27;;
11924;SDS011;6022;48.768;18.608;2023-04-07T01:41:39;2.13;;;1.00;;
11924;SDS011;6022;48.768;18.608;2023-04-07T01:44:10;1.93;;;1.77;;
11924;SDS011;6022;48.768;18.608;2023-04-07T01:46:39;2.90;;;1.73;;
11924;SDS011;6022;48.768;18.608;2023-04-07T01:49:07;1.40;;;1.30;;
11924;SDS011;6022;48.768;18.608;2023-04-07T01:51:34;1.90;;;1.73;;
11924;SDS011;6022;48.768;18.608;2023-04-07T01:54:02;2.73;;;2.00;;
11924;SDS011;6022;48.768;18.608;2023-04-07T01:56:31;1.50;;;1.33;;
11924;SDS011;6022;48.768;18.608;2023-04-07T01:58:59;0.50;;;0.50;;
11924;SDS011;6022;48.768;18.608;2023-04-07T02:01:26;1.70;;;1.60;;
11924;SDS011;6022;48.768;18.608;2023-04-07T02:03:58;2.33;;;1.73;;
11924;SDS011;6022;48.768;18.608;2023-04-07T02:06:42;1.90;;;1.57;;
11924;SDS011;6022;48.768;18.608;2023-04-07T02:09:20;1.77;;;1.27;;
11924;SDS011;6022;48.768;18.608;2023-04-07T02:11:51;1.17;;;1.07;;
11924;SDS011;6022;48.768;18.608;2023-04-07T02:14:23;1.70;;;1.40;;
11924;SDS011;6022;48.768;18.608;2023-04-07T02:16:52;2.80;;;1.27;;
11924;SDS011;6022;48.768;18.608;2023-04-07T02:19:21;1.00;;;1.00;;
11924;SDS011;6022;48.768;18.608;2023-04-07T02:21:49;2.40;;;1.33;;
11924;SDS011;6022;48.768;18.608;2023-04-07T02:24:18;1.00;;;0.90;;
11924;SDS011;6022;48.768;18.608;2023-04-07T02:26:47;0.97;;;0.80;;
11924;SDS011;6022;48.768;18.608;2023-04-07T02:29:15;1.00;;;1.00;;
11924;SDS011;6022;48.768;18.608;2023-04-07T02:31:42;1.83;;;1.73;;
11924;SDS011;6022;48.768;18.608;2023-04-07T02:34:10;2.37;;;2.17;;
11924;SDS011;6022;48.768;18.608;2023-04-07T02:36:37;1.17;;;1.07;;
11924;SDS011;6022;48.768;18.608;2023-04-07T02:39:04;2.10;;;2.00;;
11924;SDS011;6022;48.768;18.608;2023-04-07T02:41:31;1.10;;;0.83;;
11924;SDS011;6022;48.768;18.608;2023-04-07T02:43:59;3.13;;;1.67;;
11924;SDS011;6022;48.768;18.608;2023-04-07T02:46:26;6.43;;;2.53;;
11924;SDS011;6022;48.768;18.608;2023-04-07T02:48:54;2.03;;;1.37;;
11924;SDS011;6022;48.768;18.608;2023-04-07T02:51:21;2.27;;;2.03;;
11924;SDS011;6022;48.768;18.608;2023-04-07T02:53:48;1.00;;;1.00;;
11924;SDS011;6022;48.768;18.608;2023-04-07T02:56:16;2.13;;;1.70;;
11924;SDS011;6022;48.768;18.608;2023-04-07T02:58:43;1.57;;;1.47;;
11924;SDS011;6022;48.768;18.608;2023-04-07T03:01:10;1.40;;;1.30;;
11924;SDS011;6022;48.768;18.608;2023-04-07T03:03:38;2.67;;;1.80;;
11924;SDS011;6022;48.768;18.608;2023-04-07T03:06:07;1.23;;;1.13;;
11924;SDS011;6022;48.768;18.608;2023-04-07T03:08:35;2.07;;;1.53;;
11924;SDS011;6022;48.768;18.608;2023-04-07T03:11:02;2.03;;;1.20;;
11924;SDS011;6022;48.768;18.608;2023-04-07T03:13:29;1.87;;;1.00;;
11924;SDS011;6022;48.768;18.608;2023-04-07T03:15:57;0.37;;;0.33;;
11924;SDS011;6022;48.768;18.608;2023-04-07T03:18:25;1.67;;;1.57;;
11924;SDS011;6022;48.768;18.608;2023-04-07T03:20:52;1.10;;;0.97;;
11924;SDS011;6022;48.768;18.608;2023-04-07T03:23:20;1.80;;;1.50;;
11924;SDS011;6022;48.768;18.608;2023-04-07T03:25:49;1.70;;;1.57;;
11924;SDS011;6022;48.768;18.608;2023-04-07T03:28:16;0.57;;;0.57;;
11924;SDS011;6022;48.768;18.608;2023-04-07T03:30:45;2.30;;;1.53;;
11924;SDS011;6022;48.768;18.608;2023-04-07T03:33:12;3.03;;;0.93;;
11924;SDS011;6022;48.768;18.608;2023-04-07T03:35:41;2.73;;;2.53;;
11924;SDS011;6022;48.768;18.608;2023-04-07T03:38:08;1.43;;;1.20;;
11924;SDS011;6022;48.768;18.608;2023-04-07T03:40:36;2.93;;;1.30;;
11924;SDS011;6022;48.768;18.608;2023-04-07T03:43:03;4.83;;;1.53;;
11924;SDS011;6022;48.768;18.608;2023-04-07T03:45:32;3.87;;;2.17;;
11924;SDS011;6022;48.768;18.608;2023-04-07T03:48:01;1.50;;;1.30;;
11924;SDS011;6022;48.768;18.608;2023-04-07T03:50:28;0.90;;;0.87;;
11924;SDS011;6022;48.768;18.608;2023-04-07T03:52:56;4.53;;;1.63;;
11924;SDS011;6022;48.768;18.608;2023-04-07T03:55:23;2.70;;;1.40;;
11924;SDS011;6022;48.768;18.608;2023-04-07T03:57:51;3.23;;;1.40;;
11924;SDS011;6022;48.768;18.608;2023-04-07T04:00:18;1.00;;;0.87;;
11924;SDS011;6022;48.768;18.608;2023-04-07T04:02:46;1.07;;;0.80;;
11924;SDS011;6022;48.768;18.608;2023-04-07T04:05:13;1.63;;;1.00;;
11924;SDS011;6022;48.768;18.608;2023-04-07T04:07:40;2.27;;;2.07;;
11924;SDS011;6022;48.768;18.608;2023-04-07T04:10:08;1.33;;;1.03;;
11924;SDS011;6022;48.768;18.608;2023-04-07T04:12:39;1.67;;;1.03;;
11924;SDS011;6022;48.768;18.608;2023-04-07T04:15:07;2.87;;;2.23;;
11924;SDS011;6022;48.768;18.608;2023-04-07T04:17:35;4.47;;;1.27;;
11924;SDS011;6022;48.768;18.608;2023-04-07T04:20:02;1.73;;;1.40;;
11924;SDS011;6022;48.768;18.608;2023-04-07T04:22:30;4.10;;;1.80;;
11924;SDS011;6022;48.768;18.608;2023-04-07T04:24:58;1.83;;;0.77;;
11924;SDS011;6022;48.768;18.608;2023-04-07T04:27:26;2.00;;;1.43;;
11924;SDS011;6022;48.768;18.608;2023-04-07T04:29:54;3.30;;;1.70;;
11924;SDS011;6022;48.768;18.608;2023-04-07T04:32:22;1.13;;;1.03;;
11924;SDS011;6022;48.768;18.608;2023-04-07T04:34:49;1.63;;;0.87;;
11924;SDS011;6022;48.768;18.608;2023-04-07T04:37:16;2.33;;;1.77;;
11924;SDS011;6022;48.768;18.608;2023-04-07T04:39:44;0.60;;;0.60;;
11924;SDS011;6022;48.768;18.608;2023-04-07T04:42:14;2.97;;;2.37;;
11924;SDS011;6022;48.768;18.608;2023-04-07T04:44:42;1.63;;;1.53;;
11924;SDS011;6022;48.768;18.608;2023-04-07T04:47:09;4.87;;;2.27;;
11924;SDS011;6022;48.768;18.608;2023-04-07T04:49:36;1.17;;;0.90;;
11924;SDS011;6022;48.768;18.608;2023-04-07T04:52:04;0.93;;;0.80;;
11924;SDS011;6022;48.768;18.608;2023-04-07T04:54:32;1.20;;;1.10;;
11924;SDS011;6022;48.768;18.608;2023-04-07T04:56:59;1.57;;;1.20;;
11924;SDS011;6022;48.768;18.608;2023-04-07T04:59:27;1.13;;;1.13;;
11924;SDS011;6022;48.768;18.608;2023-04-07T05:01:56;2.00;;;1.07;;
11924;SDS011;6022;48.768;18.608;2023-04-07T05:04:24;0.87;;;0.87;;
11924;SDS011;6022;48.768;18.608;2023-04-07T05:06:54;1.33;;;1.00;;
11924;SDS011;6022;48.768;18.608;2023-04-07T05:09:23;1.47;;;1.20;;
11924;SDS011;6022;48.768;18.608;2023-04-07T05:11:51;1.70;;;1.03;;
11924;SDS011;6022;48.768;18.608;2023-04-07T05:14:18;2.13;;;1.87;;
11924;SDS011;6022;48.768;18.608;2023-04-07T05:16:45;0.60;;;0.60;;
11924;SDS011;6022;48.768;18.608;2023-04-07T05:19:13;4.10;;;2.37;;
11924;SDS011;6022;48.768;18.608;2023-04-07T05:21:40;0.43;;;0.43;;
11924;SDS011;6022;48.768;18.608;2023-04-07T05:24:07;3.30;;;2.37;;
11924;SDS011;6022;48.768;18.608;2023-04-07T05:26:35;2.17;;;1.83;;
11924;SDS011;6022;48.768;18.608;2023-04-07T05:29:02;3.77;;;2.60;;
11924;SDS011;6022;48.768;18.608;2023-04-07T05:31:29;1.63;;;1.53;;
11924;SDS011;6022;48.768;18.608;2023-04-07T05:33:56;1.10;;;0.67;;
11924;SDS011;6022;48.768;18.608;2023-04-07T05:36:23;4.13;;;1.37;;
11924;SDS011;6022;48.768;18.608;2023-04-07T05:38:54;1.93;;;1.73;;
11924;SDS011;6022;48.768;18.608;2023-04-07T05:41:21;0.87;;;0.70;;
11924;SDS011;6022;48.768;18.608;2023-04-07T05:43:48;1.93;;;1.67;;
11924;SDS011;6022;48.768;18.608;2023-04-07T05:46:16;1.73;;;1.47;;
11924;SDS011;6022;48.768;18.608;2023-04-07T05:48:43;1.37;;;1.30;;
11924;SDS011;6022;48.768;18.608;2023-04-07T05:51:13;2.00;;;1.40;;
11924;SDS011;6022;48.768;18.608;2023-04-07T05:53:41;3.43;;;2.07;;
11924;SDS011;6022;48.768;18.608;2023-04-07T05:56:08;0.80;;;0.80;;
11924;SDS011;6022;48.768;18.608;2023-04-07T05:58:35;2.70;;;1.57;;
11924;SDS011;6022;48.768;18.608;2023-04-07T06:01:03;2.63;;;1.60;;
11924;SDS011;6022;48.768;18.608;2023-04-07T06:03:30;1.33;;;1.23;;
11924;SDS011;6022;48.768;18.608;2023-04-07T06:05:58;2.27;;;2.07;;
11924;SDS011;6022;48.768;18.608;2023-04-07T06:08:25;4.50;;;1.83;;
11924;SDS011;6022;48.768;18.608;2023-04-07T06:10:53;5.50;;;2.43;;
11924;SDS011;6022;48.768;18.608;2023-04-07T06:13:21;2.33;;;2.00;;
11924;SDS011;6022;48.768;18.608;2023-04-07T06:15:48;1.90;;;1.43;;
11924;SDS011;6022;48.768;18.608;2023-04-07T06:18:16;2.77;;;1.60;;
11924;SDS011;6022;48.768;18.608;2023-04-07T06:20:43;1.93;;;1.43;;
11924;SDS011;6022;48.768;18.608;2023-04-07T06:23:10;2.63;;;1.57;;
11924;SDS011;6022;48.768;18.608;2023-04-07T06:25:37;3.30;;;1.83;;
11924;SDS011;6022;48.768;18.608;2023-04-07T06:28:06;3.20;;;1.47;;
11924;SDS011;6022;48.768;18.608;2023-04-07T06:30:34;2.43;;;1.70;;
11924;SDS011;6022;48.768;18.608;2023-04-07T06:33:01;4.47;;;2.77;;
11924;SDS011;6022;48.768;18.608;2023-04-07T06:35:30;3.30;;;2.13;;
11924;SDS011;6022;48.768;18.608;2023-04-07T06:37:57;1.80;;;0.90;;
11924;SDS011;6022;48.768;18.608;2023-04-07T06:40:25;2.53;;;2.10;;
11924;SDS011;6022;48.768;18.608;2023-04-07T06:42:52;2.57;;;2.00;;
11924;SDS011;6022;48.768;18.608;2023-04-07T06:45:20;2.07;;;1.77;;
11924;SDS011;6022;48.768;18.608;2023-04-07T06:47:47;2.77;;;2.57;;
11924;SDS011;6022;48.768;18.608;2023-04-07T06:50:15;3.40;;;2.43;;
11924;SDS011;6022;48.768;18.608;2023-04-07T06:52:46;7.17;;;2.90;;
11924;SDS011;6022;48.768;18.608;2023-04-07T06:55:13;2.53;;;2.03;;
11924;SDS011;6022;48.768;18.608;2023-04-07T06:57:41;4.90;;;2.53;;
11924;SDS011;6022;48.768;18.608;2023-04-07T07:00:08;9.07;;;3.80;;
11924;SDS011;6022;48.768;18.608;2023-04-07T07:02:37;6.23;;;3.33;;
11924;SDS011;6022;48.768;18.608;2023-04-07T07:05:05;4.30;;;2.47;;
11924;SDS011;6022;48.768;18.608;2023-04-07T07:07:33;5.77;;;3.63;;
11924;SDS011;6022;48.768;18.608;2023-04-07T07:10:00;3.03;;;2.63;;
11924;SDS011;6022;48.768;18.608;2023-04-07T07:12:28;6.33;;;3.30;;
11924;SDS011;6022;48.768;18.608;2023-04-07T07:14:56;2.57;;;2.13;;
11924;SDS011;6022;48.768;18.608;2023-04-07T07:17:23;2.63;;;2.30;;
11924;SDS011;6022;48.768;18.608;2023-04-07T07:19:55;7.23;;;3.00;;
11924;SDS011;6022;48.768;18.608;2023-04-07T07:22:22;2.53;;;2.10;;
11924;SDS011;6022;48.768;18.608;2023-04-07T07:24:49;4.13;;;1.93;;
11924;SDS011;6022;48.768;18.608;2023-04-07T07:27:17;4.70;;;2.53;;
11924;SDS011;6022;48.768;18.608;2023-04-07T07:29:44;2.40;;;2.03;;
11924;SDS011;6022;48.768;18.608;2023-04-07T07:32:13;5.57;;;3.30;;
11924;SDS011;6022;48.768;18.608;2023-04-07T07:34:41;5.50;;;2.47;;
11924;SDS011;6022;48.768;18.608;2023-04-07T07:37:08;2.80;;;2.60;;
11924;SDS011;6022;48.768;18.608;2023-04-07T07:39:39;10.23;;;6.27;;
11924;SDS011;6022;48.768;18.608;2023-04-07T07:42:09;1.43;;;1.37;;
11924;SDS011;6022;48.768;18.608;2023-04-07T07:44:36;2.03;;;1.83;;
11924;SDS011;6022;48.768;18.608;2023-04-07T07:47:03;2.17;;;1.50;;
11924;SDS011;6022;48.768;18.608;2023-04-07T07:49:37;1.03;;;0.93;;
11924;SDS011;6022;48.768;18.608;2023-04-07T07:52:05;1.33;;;0.67;;
11924;SDS011;6022;48.768;18.608;2023-04-07T07:54:35;3.70;;;1.63;;
11924;SDS011;6022;48.768;18.608;2023-04-07T07:57:02;2.70;;;1.63;;
11924;SDS011;6022;48.768;18.608;2023-04-07T07:59:31;2.37;;;1.70;;
11924;SDS011;6022;48.768;18.608;2023-04-07T08:01:59;2.10;;;1.30;;
11924;SDS011;6022;48.768;18.608;2023-04-07T08:04:26;4.00;;;2.33;;
11924;SDS011;6022;48.768;18.608;2023-04-07T08:06:54;2.97;;;1.60;;
11924;SDS011;6022;48.768;18.608;2023-04-07T08:09:21;3.60;;;1.90;;
11924;SDS011;6022;48.768;18.608;2023-04-07T08:11:48;2.17;;;1.47;;
11924;SDS011;6022;48.768;18.608;2023-04-07T08:14:17;2.47;;;1.67;;
11924;SDS011;6022;48.768;18.608;2023-04-07T08:16:44;2.67;;;1.67;;
11924;SDS011;6022;48.768;18.608;2023-04-07T08:19:12;4.43;;;3.00;;
11924;SDS011;6022;48.768;18.608;2023-04-07T08:21:42;4.77;;;2.27;;
11924;SDS011;6022;48.768;18.608;2023-04-07T08:24:11;4.77;;;3.20;;
11924;SDS011;6022;48.768;18.608;2023-04-07T08:26:39;5.77;;;3.57;;
11924;SDS011;6022;48.768;18.608;2023-04-07T08:29:06;5.53;;;3.70;;
11924;SDS011;6022;48.768;18.608;2023-04-07T08:31:34;5.93;;;3.10;;
11924;SDS011;6022;48.768;18.608;2023-04-07T08:34:03;4.40;;;3.07;;
11924;SDS011;6022;48.768;18.608;2023-04-07T08:36:30;4.73;;;3.60;;
11924;SDS011;6022;48.768;18.608;2023-04-07T08:39:01;4.50;;;2.93;;
11924;SDS011;6022;48.768;18.608;2023-04-07T08:41:49;4.20;;;3.20;;
11924;SDS011;6022;48.768;18.608;2023-04-07T08:44:16;4.50;;;2.97;;
11924;SDS011;6022;48.768;18.608;2023-04-07T08:46:48;4.90;;;3.90;;
11924;SDS011;6022;48.768;18.608;2023-04-07T08:49:21;4.63;;;3.13;;
11924;SDS011;6022;48.768;18.608;2023-04-07T08:51:52;3.83;;;2.47;;
11924;SDS011;6022;48.768;18.608;2023-04-07T08:54:24;3.63;;;2.70;;
11924;SDS011;6022;48.768;18.608;2023-04-07T08:56:52;4.43;;;3.10;;
11924;SDS011;6022;48.768;18.608;2023-04-07T08:59:20;5.10;;;3.10;;
11924;SDS011;6022;48.768;18.608;2023-04-07T09:01:52;4.10;;;3.07;;
11924;SDS011;6022;48.768;18.608;2023-04-07T09:04:21;5.10;;;2.77;;
11924;SDS011;6022;48.768;18.608;2023-04-07T09:06:50;3.50;;;2.27;;
11924;SDS011;6022;48.768;18.608;2023-04-07T09:09:19;2.70;;;2.13;;
11924;SDS011;6022;48.768;18.608;2023-04-07T09:11:52;3.37;;;1.90;;
11924;SDS011;6022;48.768;18.608;2023-04-07T09:14:19;2.83;;;2.30;;
11924;SDS011;6022;48.768;18.608;2023-04-07T09:16:47;4.27;;;2.47;;
11924;SDS011;6022;48.768;18.608;2023-04-07T09:19:23;2.93;;;2.23;;
11924;SDS011;6022;48.768;18.608;2023-04-07T09:21:52;2.03;;;1.93;;
11924;SDS011;6022;48.768;18.608;2023-04-07T09:24:24;2.80;;;2.60;;
11924;SDS011;6022;48.768;18.608;2023-04-07T09:29:44;4.53;;;2.73;;
11924;SDS011;6022;48.768;18.608;2023-04-07T09:32:35;3.73;;;2.87;;
11924;SDS011;6022;48.768;18.608;2023-04-07T09:35:04;2.17;;;1.97;;
11924;SDS011;6022;48.768;18.608;2023-04-07T09:37:35;2.30;;;2.00;;
11924;SDS011;6022;48.768;18.608;2023-04-07T09:40:02;2.73;;;2.50;;
11924;SDS011;6022;48.768;18.608;2023-04-07T09:42:33;2.93;;;2.10;;
11924;SDS011;6022;48.768;18.608;2023-04-07T09:45:03;3.23;;;2.27;;
11924;SDS011;6022;48.768;18.608;2023-04-07T09:47:33;2.73;;;2.43;;
11924;SDS011;6022;48.768;18.608;2023-04-07T09:50:00;2.43;;;2.00;;
11924;SDS011;6022;48.768;18.608;2023-04-07T09:52:48;5.10;;;2.60;;
11924;SDS011;6022;48.768;18.608;2023-04-07T09:55:19;3.17;;;2.63;;
11924;SDS011;6022;48.768;18.608;2023-04-07T09:57:52;4.50;;;2.97;;
11924;SDS011;6022;48.768;18.608;2023-04-07T10:00:21;3.60;;;3.00;;
11924;SDS011;6022;48.768;18.608;2023-04-07T10:02:49;5.03;;;2.80;;
11924;SDS011;6022;48.768;18.608;2023-04-07T10:05:18;3.73;;;2.27;;
11924;SDS011;6022;48.768;18.608;2023-04-07T10:07:48;2.60;;;2.30;;
11924;SDS011;6022;48.768;18.608;2023-04-07T10:10:16;5.30;;;2.30;;
11924;SDS011;6022;48.768;18.608;2023-04-07T10:12:43;4.50;;;2.97;;
11924;SDS011;6022;48.768;18.608;2023-04-07T10:15:12;3.67;;;2.83;;
11924;SDS011;6022;48.768;18.608;2023-04-07T10:17:44;2.90;;;2.70;;
11924;SDS011;6022;48.768;18.608;2023-04-07T10:20:17;3.33;;;2.87;;
11924;SDS011;6022;48.768;18.608;2023-04-07T10:22:48;4.63;;;2.70;;
11924;SDS011;6022;48.768;18.608;2023-04-07T10:25:26;3.53;;;2.43;;
11924;SDS011;6022;48.768;18.608;2023-04-07T10:27:57;3.23;;;2.53;;
11924;SDS011;6022;48.768;18.608;2023-04-07T10:30:33;3.13;;;2.67;;
11924;SDS011;6022;48.768;18.608;2023-04-07T10:33:01;2.43;;;2.03;;
11924;SDS011;6022;48.768;18.608;2023-04-07T10:38:31;2.13;;;1.57;;
11924;SDS011;6022;48.768;18.608;2023-04-07T10:40:59;3.50;;;2.33;;
11924;SDS011;6022;48.768;18.608;2023-04-07T10:44:00;2.23;;;1.67;;
11924;SDS011;6022;48.768;18.608;2023-04-07T10:49:13;5.83;;;2.77;;
11924;SDS011;6022;48.768;18.608;2023-04-07T10:51:47;5.07;;;2.67;;
11924;SDS011;6022;48.768;18.608;2023-04-07T10:55:26;3.80;;;2.87;;
11924;SDS011;6022;48.768;18.608;2023-04-07T10:58:12;3.53;;;2.93;;
11924;SDS011;6022;48.768;18.608;2023-04-07T11:03:35;4.10;;;3.10;;
11924;SDS011;6022;48.768;18.608;2023-04-07T11:06:12;5.33;;;4.07;;
11924;SDS011;6022;48.768;18.608;2023-04-07T11:08:40;3.97;;;2.80;;
11924;SDS011;6022;48.768;18.608;2023-04-07T11:11:15;4.27;;;3.50;;
11924;SDS011;6022;48.768;18.608;2023-04-07T11:14:05;4.20;;;2.70;;
11924;SDS011;6022;48.768;18.608;2023-04-07T11:16:35;3.83;;;3.30;;
11924;SDS011;6022;48.768;18.608;2023-04-07T11:19:10;3.00;;;2.70;;
11924;SDS011;6022;48.768;18.608;2023-04-07T11:21:37;6.03;;;3.77;;
11924;SDS011;6022;48.768;18.608;2023-04-07T11:24:05;3.40;;;3.10;;
11924;SDS011;6022;48.768;18.608;2023-04-07T11:26:39;4.40;;;2.93;;
11924;SDS011;6022;48.768;18.608;2023-04-07T11:29:07;5.20;;;3.17;;
11924;SDS011;6022;48.768;18.608;2023-04-07T11:31:35;3.53;;;3.03;;
11924;SDS011;6022;48.768;18.608;2023-04-07T11:34:07;7.10;;;3.93;;
11924;SDS011;6022;48.768;18.608;2023-04-07T11:36:38;8.17;;;3.83;;
11924;SDS011;6022;48.768;18.608;2023-04-07T11:39:17;4.73;;;3.60;;
11924;SDS011;6022;48.768;18.608;2023-04-07T11:41:48;4.30;;;3.17;;
11924;SDS011;6022;48.768;18.608;2023-04-07T11:44:16;5.50;;;3.40;;
11924;SDS011;6022;48.768;18.608;2023-04-07T11:46:57;3.77;;;2.97;;
11924;SDS011;6022;48.768;18.608;2023-04-07T11:49:29;3.87;;;3.37;;
11924;SDS011;6022;48.768;18.608;2023-04-07T11:52:02;5.60;;;3.57;;
11924;SDS011;6022;48.768;18.608;2023-04-07T11:57:12;6.10;;;3.60;;
11924;SDS011;6022;48.768;18.608;2023-04-07T11:59:40;4.97;;;3.67;;
11924;SDS011;6022;48.768;18.608;2023-04-07T12:02:07;5.17;;;3.93;;
11924;SDS011;6022;48.768;18.608;2023-04-07T12:05:03;3.53;;;2.87;;
11924;SDS011;6022;48.768;18.608;2023-04-07T12:07:35;5.03;;;4.10;;
11924;SDS011;6022;48.768;18.608;2023-04-07T12:10:17;4.53;;;3.33;;
11924;SDS011;6022;48.768;18.608;2023-04-07T12:13:12;6.83;;;4.17;;
11924;SDS011;6022;48.768;18.608;2023-04-07T12:15:42;4.27;;;3.63;;
11924;SDS011;6022;48.768;18.608;2023-04-07T12:18:14;5.07;;;3.10;;
11924;SDS011;6022;48.768;18.608;2023-04-07T12:20:42;4.50;;;3.53;;
11924;SDS011;6022;48.768;18.608;2023-04-07T12:23:17;4.00;;;3.20;;
11924;SDS011;6022;48.768;18.608;2023-04-07T12:25:44;3.40;;;3.10;;
11924;SDS011;6022;48.768;18.608;2023-04-07T12:28:13;4.73;;;3.13;;
11924;SDS011;6022;48.768;18.608;2023-04-07T12:30:41;8.97;;;4.10;;
11924;SDS011;6022;48.768;18.608;2023-04-07T12:33:09;6.30;;;3.87;;
11924;SDS011;6022;48.768;18.608;2023-04-07T12:35:43;4.10;;;2.60;;
11924;SDS011;6022;48.768;18.608;2023-04-07T12:38:21;5.27;;;3.43;;
11924;SDS011;6022;48.768;18.608;2023-04-07T12:40:53;5.40;;;4.10;;
11924;SDS011;6022;48.768;18.608;2023-04-07T12:43:29;3.60;;;2.70;;
11924;SDS011;6022;48.768;18.608;2023-04-07T12:46:08;3.33;;;2.97;;
11924;SDS011;6022;48.768;18.608;2023-04-07T12:48:40;4.03;;;2.83;;
11924;SDS011;6022;48.768;18.608;2023-04-07T12:51:11;6.80;;;4.00;;
11924;SDS011;6022;48.768;18.608;2023-04-07T12:53:43;3.73;;;3.10;;
11924;SDS011;6022;48.768;18.608;2023-04-07T12:56:12;6.37;;;3.70;;
11924;SDS011;6022;48.768;18.608;2023-04-07T12:58:40;4.90;;;3.13;;
11924;SDS011;6022;48.768;18.608;2023-04-07T13:01:08;5.73;;;3.37;;
11924;SDS011;6022;48.768;18.608;2023-04-07T13:03:36;3.97;;;3.10;;
11924;SDS011;6022;48.768;18.608;2023-04-07T13:06:24;5.93;;;3.17;;
11924;SDS011;6022;48.768;18.608;2023-04-07T13:08:53;3.33;;;2.83;;
11924;SDS011;6022;48.768;18.608;2023-04-07T13:11:23;3.47;;;2.77;;
11924;SDS011;6022;48.768;18.608;2023-04-07T13:14:02;4.63;;;2.90;;
11924;SDS011;6022;48.768;18.608;2023-04-07T13:16:33;4.93;;;3.63;;
11924;SDS011;6022;48.768;18.608;2023-04-07T13:19:00;3.83;;;2.97;;
11924;SDS011;6022;48.768;18.608;2023-04-07T13:21:29;4.40;;;3.73;;
11924;SDS011;6022;48.768;18.608;2023-04-07T13:24:00;5.50;;;3.23;;
11924;SDS011;6022;48.768;18.608;2023-04-07T13:26:29;4.97;;;3.53;;
11924;SDS011;6022;48.768;18.608;2023-04-07T13:28:58;4.50;;;3.30;;
11924;SDS011;6022;48.768;18.608;2023-04-07T13:31:26;4.40;;;3.03;;
11924;SDS011;6022;48.768;18.608;2023-04-07T13:33:54;4.57;;;3.33;;
11924;SDS011;6022;48.768;18.608;2023-04-07T13:36:21;4.10;;;2.97;;
11924;SDS011;6022;48.768;18.608;2023-04-07T13:38:55;6.93;;;3.07;;
11924;SDS011;6022;48.768;18.608;2023-04-07T13:41:23;7.90;;;3.57;;
11924;SDS011;6022;48.768;18.608;2023-04-07T13:43:52;3.73;;;3.17;;
11924;SDS011;6022;48.768;18.608;2023-04-07T13:46:19;5.03;;;3.50;;
11924;SDS011;6022;48.768;18.608;2023-04-07T13:48:54;4.20;;;2.77;;
11924;SDS011;6022;48.768;18.608;2023-04-07T13:51:25;3.63;;;2.87;;
11924;SDS011;6022;48.768;18.608;2023-04-07T13:53:53;3.87;;;3.47;;
11924;SDS011;6022;48.768;18.608;2023-04-07T13:56:21;5.50;;;3.57;;
11924;SDS011;6022;48.768;18.608;2023-04-07T13:58:56;4.47;;;3.43;;
11924;SDS011;6022;48.768;18.608;2023-04-07T14:01:26;6.13;;;3.83;;
11924;SDS011;6022;48.768;18.608;2023-04-07T14:03:54;7.20;;;3.43;;
11924;SDS011;6022;48.768;18.608;2023-04-07T14:06:26;4.53;;;2.97;;
11924;SDS011;6022;48.768;18.608;2023-04-07T14:08:54;2.97;;;2.50;;
11924;SDS011;6022;48.768;18.608;2023-04-07T14:11:24;4.63;;;3.53;;
11924;SDS011;6022;48.768;18.608;2023-04-07T14:13:51;3.60;;;2.90;;
11924;SDS011;6022;48.768;18.608;2023-04-07T14:16:20;5.67;;;3.53;;
11924;SDS011;6022;48.768;18.608;2023-04-07T14:18:51;3.63;;;3.33;;
11924;SDS011;6022;48.768;18.608;2023-04-07T14:21:19;4.10;;;3.27;;
11924;SDS011;6022;48.768;18.608;2023-04-07T14:23:52;6.67;;;3.77;;
11924;SDS011;6022;48.768;18.608;2023-04-07T14:26:21;4.33;;;3.07;;
11924;SDS011;6022;48.768;18.608;2023-04-07T14:28:49;3.77;;;3.20;;
11924;SDS011;6022;48.768;18.608;2023-04-07T14:31:19;2.47;;;2.27;;
11924;SDS011;6022;48.768;18.608;2023-04-07T14:33:47;2.87;;;2.67;;
11924;SDS011;6022;48.768;18.608;2023-04-07T14:36:15;4.33;;;2.70;;
11924;SDS011;6022;48.768;18.608;2023-04-07T14:38:43;2.90;;;2.57;;
11924;SDS011;6022;48.768;18.608;2023-04-07T14:41:10;5.30;;;3.03;;
11924;SDS011;6022;48.768;18.608;2023-04-07T14:43:38;4.43;;;3.30;;
11924;SDS011;6022;48.768;18.608;2023-04-07T14:46:06;4.67;;;3.63;;
11924;SDS011;6022;48.768;18.608;2023-04-07T14:48:34;3.30;;;2.90;;
11924;SDS011;6022;48.768;18.608;2023-04-07T14:51:02;5.33;;;2.67;;
11924;SDS011;6022;48.768;18.608;2023-04-07T14:53:35;6.83;;;2.80;;
11924;SDS011;6022;48.768;18.608;2023-04-07T14:56:03;3.47;;;2.57;;
11924;SDS011;6022;48.768;18.608;2023-04-07T14:58:32;5.37;;;3.00;;
11924;SDS011;6022;48.768;18.608;2023-04-07T15:00:59;3.80;;;2.43;;
11924;SDS011;6022;48.768;18.608;2023-04-07T15:03:31;6.23;;;2.77;;
11924;SDS011;6022;48.768;18.608;2023-04-07T15:06:07;4.37;;;2.73;;
11924;SDS011;6022;48.768;18.608;2023-04-07T15:08:36;3.50;;;2.13;;
11924;SDS011;6022;48.768;18.608;2023-04-07T15:11:04;3.17;;;2.73;;
11924;SDS011;6022;48.768;18.608;2023-04-07T15:13:35;3.50;;;3.20;;
11924;SDS011;6022;48.768;18.608;2023-04-07T15:16:09;5.53;;;3.70;;
11924;SDS011;6022;48.768;18.608;2023-04-07T15:18:44;4.43;;;3.00;;
11924;SDS011;6022;48.768;18.608;2023-04-07T15:21:13;4.57;;;3.57;;
11924;SDS011;6022;48.768;18.608;2023-04-07T15:23:41;5.77;;;3.23;;
11924;SDS011;6022;48.768;18.608;2023-04-07T15:26:09;6.33;;;3.23;;